Time;durP1;ratioP1;P1;durP2;ratioP2;P2;SDS_P1;SDS_P2;PMS_P1;PMS_P2;Temp;Humidity;BMP_temperature;BMP_pressure;BME280_temperature;BME280_humidity;BME280_pressure;Samples;Min_cycle;Max_cycle;Signal;HPM_P1;HPM_P2
2022/12/01 00:01:18;;;;;;;17.60;7.20;;;;;;;3.21;100.00;99323.19;4469644;32;20097;-76
2022/12/01 00:03:46;;;;;;;15.77;7.50;;;;;;;3.15;100.00;99326.94;4469506;32;20129;-76
2022/12/01 00:06:16;;;;;;;14.77;6.87;;;;;;;3.12;100.00;99328.81;4469584;32;20131;-76
2022/12/01 00:10:24;;;;;;;16.30;7.22;;;;;;;3.00;100.00;99323.34;4476526;32;20168;-76
2022/12/01 00:11:34;;;;;;;15.57;7.50;;;;;;;2.96;100.00;99329.56;4485146;31;20220;-76
2022/12/01 00:14:01;;;;;;;19.17;8.00;;;;;;;2.93;100.00;99323.72;4485188;31;20104;-76
2022/12/01 00:16:29;;;;;;;15.90;7.68;;;;;;;2.83;100.00;99328.50;4485214;31;20483;-76
2022/12/01 00:18:56;;;;;;;15.80;7.20;;;;;;;2.77;100.00;99328.78;4485075;32;20119;-76
2022/12/01 00:21:25;;;;;;;17.48;7.50;;;;;;;2.67;100.00;99331.81;4474718;31;20420;-76
2022/12/01 00:23:54;;;;;;;13.80;6.62;;;;;;;2.67;100.00;99324.06;4469396;32;20176;-76
2022/12/01 00:26:22;;;;;;;15.80;6.40;;;;;;;2.61;100.00;99332.13;4469395;32;20488;-76
2022/12/01 00:28:50;;;;;;;17.05;7.87;;;;;;;2.60;100.00;99332.19;4469505;32;20093;-76
2022/12/01 00:31:17;;;;;;;21.73;7.80;;;;;;;2.52;100.00;99331.72;4469194;32;20137;-76
2022/12/01 00:33:45;;;;;;;16.02;7.47;;;;;;;2.53;100.00;99330.78;4469464;32;20718;-76
2022/12/01 00:36:12;;;;;;;16.62;8.15;;;;;;;2.51;100.00;99330.03;4469168;32;20096;-76
2022/12/01 00:38:39;;;;;;;18.35;7.90;;;;;;;2.40;100.00;99328.78;4469464;32;20575;-76
2022/12/01 00:41:07;;;;;;;17.40;7.85;;;;;;;2.37;100.00;99330.69;4469389;32;20124;-76
2022/12/01 00:43:34;;;;;;;17.48;7.93;;;;;;;2.27;100.00;99325.94;4469206;32;20104;-76
2022/12/01 00:46:01;;;;;;;17.25;7.18;;;;;;;2.22;100.00;99325.31;4469271;32;20143;-76
2022/12/01 00:48:30;;;;;;;16.60;7.07;;;;;;;2.21;100.00;99331.41;4469200;32;20107;-76
2022/12/01 00:50:57;;;;;;;14.07;7.47;;;;;;;2.16;100.00;99320.41;4469411;32;20141;-76
2022/12/01 00:53:24;;;;;;;19.40;7.80;;;;;;;2.11;100.00;99328.38;4468526;32;20179;-76
2022/12/01 00:55:54;;;;;;;15.05;7.70;;;;;;;2.11;100.00;99332.72;4469340;32;20085;-76
2022/12/01 00:58:22;;;;;;;17.73;6.97;;;;;;;2.04;100.00;99332.16;4469103;32;20100;-76
2022/12/01 01:00:59;;;;;;;15.82;7.20;;;;;;;2.04;100.00;99329.56;4469065;32;20108;-76
2022/12/01 01:03:28;;;;;;;17.30;7.47;;;;;;;1.89;100.00;99333.69;4469513;32;20160;-76
2022/12/01 01:05:55;;;;;;;15.73;6.87;;;;;;;1.86;100.00;99338.16;4468972;32;20100;-76
2022/12/01 01:08:22;;;;;;;16.20;7.18;;;;;;;1.88;100.00;99334.59;4473636;32;20141;-76
2022/12/01 01:10:50;;;;;;;19.80;7.15;;;;;;;1.87;100.00;99332.09;4484738;31;20148;-76
2022/12/01 01:13:17;;;;;;;17.52;7.85;;;;;;;1.75;100.00;99333.47;4484705;31;20087;-76
2022/12/01 01:15:44;;;;;;;16.27;7.43;;;;;;;1.62;100.00;99329.72;4484815;31;20084;-76
2022/12/01 01:18:11;;;;;;;18.02;7.25;;;;;;;1.55;100.00;99327.41;4484720;31;20450;-76
2022/12/01 01:20:38;;;;;;;18.33;7.82;;;;;;;1.48;100.00;99323.41;4478613;31;20107;-76
2022/12/01 01:23:05;;;;;;;20.52;7.87;;;;;;;1.38;100.00;99327.31;4468776;32;20178;-76
2022/12/01 01:25:33;;;;;;;16.35;7.47;;;;;;;1.29;100.00;99320.78;4468779;32;20165;-76
2022/12/01 01:28:00;;;;;;;19.30;8.27;;;;;;;1.29;100.00;99328.53;4468845;32;20097;-76
2022/12/01 01:30:27;;;;;;;15.68;7.15;;;;;;;1.34;100.00;99323.19;4468798;32;20130;-76
2022/12/01 01:32:54;;;;;;;17.87;7.18;;;;;;;1.28;100.00;99326.03;4468728;32;20122;-76
2022/12/01 01:35:21;;;;;;;15.25;7.60;;;;;;;1.27;100.00;99312.25;4468693;32;20096;-76
2022/12/01 01:37:49;;;;;;;19.87;8.48;;;;;;;1.19;100.00;99316.91;4468594;32;20566;-76
2022/12/01 01:40:17;;;;;;;19.85;7.90;;;;;;;1.14;100.00;99313.69;4468793;32;20116;-76
2022/12/01 01:42:44;;;;;;;22.33;7.28;;;;;;;1.15;100.00;99321.38;4468539;32;20088;-76
2022/12/01 01:45:24;;;;;;;17.08;8.02;;;;;;;1.14;100.00;99324.84;4468438;32;20172;-76
2022/12/01 01:47:52;;;;;;;20.23;8.07;;;;;;;1.16;100.00;99322.22;4468476;32;20480;-76
2022/12/01 01:50:23;;;;;;;21.10;8.65;;;;;;;1.14;100.00;99322.28;4467161;32;20126;-76
2022/12/01 01:53:09;;;;;;;18.65;7.85;;;;;;;1.13;100.00;99325.75;4467054;32;20100;-76
2022/12/01 01:55:37;;;;;;;18.42;8.30;;;;;;;1.06;100.00;99329.50;4467148;32;20641;-76
2022/12/01 01:58:07;;;;;;;18.17;7.00;;;;;;;0.92;100.00;99324.06;4468244;32;20424;-76
2022/12/01 02:00:34;;;;;;;20.05;7.62;;;;;;;0.99;100.00;99322.91;4468152;32;20092;-76
2022/12/01 02:03:02;;;;;;;20.52;8.05;;;;;;;0.93;100.00;99325.75;4467014;32;20535;-76
2022/12/01 02:05:32;;;;;;;16.70;7.18;;;;;;;0.96;100.00;99326.44;4469077;32;20162;-76
2022/12/01 02:08:00;;;;;;;14.05;6.47;;;;;;;0.87;100.00;99325.06;4471065;32;20212;-76
2022/12/01 02:11:32;;;;;;;17.00;7.53;;;;;;;0.87;100.00;99324.25;4486381;32;20167;-76
2022/12/01 02:14:24;;;;;;;20.70;7.72;;;;;;;0.68;100.00;99312.09;4360961;32;20099;-76
2022/12/01 02:17:20;;;;;;;21.75;7.62;;;;;;;0.52;100.00;99319.59;4361060;32;20249;-76
2022/12/01 02:20:12;;;;;;;19.45;7.47;;;;;;;0.44;100.00;99311.31;4360992;32;20157;-76
2022/12/01 02:22:42;;;;;;;16.45;7.35;;;;;;;0.44;100.00;99308.75;4360817;32;20165;-76
2022/12/01 02:25:32;;;;;;;22.00;8.32;;;;;;;0.49;100.00;99316.28;4360979;32;20414;-76
2022/12/01 02:28:20;;;;;;;20.25;6.90;;;;;;;0.57;100.00;99313.41;4360921;32;20205;-76
2022/12/01 02:30:59;;;;;;;18.15;7.80;;;;;;;0.53;100.00;99307.56;4316437;33;20115;-76
2022/12/01 02:33:40;;;;;;;21.52;8.23;;;;;;;0.52;100.00;99317.00;4304854;33;20184;-76
2022/12/01 02:36:14;;;;;;;18.27;8.48;;;;;;;0.52;100.00;99306.69;4316834;33;20111;-76
2022/12/01 02:38:41;;;;;;;;;;;;;;;0.50;100.00;99312.81;4305044;33;20228;-76
2022/12/01 02:41:28;;;;;;;14.45;6.37;;;;;;;0.48;100.00;99310.28;4317045;33;19993;-76
2022/12/01 02:44:09;;;;;;;16.75;7.25;;;;;;;0.45;100.00;99304.41;4304651;33;20208;-76
2022/12/01 02:46:58;;;;;;;19.52;7.30;;;;;;;0.45;100.00;99310.41;4316673;33;20162;-76
2022/12/01 02:49:30;;;;;;;15.60;7.00;;;;;;;0.42;100.00;99305.38;4360953;32;20161;-76
2022/12/01 02:51:57;;;;;;;15.48;7.15;;;;;;;0.43;100.00;99307.06;4393671;32;20440;-76
2022/12/01 02:54:25;;;;;;;16.52;7.43;;;;;;;0.43;100.00;99301.91;4393205;32;20567;-76
2022/12/01 02:56:52;;;;;;;16.52;5.95;;;;;;;0.47;100.00;99302.63;4393470;32;20151;-76
2022/12/01 02:59:19;;;;;;;12.82;6.00;;;;;;;0.61;100.00;99304.66;4406212;32;20621;-76
2022/12/01 03:02:13;;;;;;;14.35;6.18;;;;;;;0.73;100.00;99309.34;4405678;32;20098;-76
2022/12/01 03:04:54;;;;;;;14.43;5.65;;;;;;;0.79;100.00;99303.94;4393311;32;20126;-76
2022/12/01 03:07:28;;;;;;;16.37;6.32;;;;;;;0.86;100.00;99307.94;4421500;32;20164;-76
2022/12/01 03:10:19;;;;;;;19.73;6.40;;;;;;;0.82;100.00;99315.87;4484674;32;20114;-76
2022/12/01 03:13:00;;;;;;;12.55;6.05;;;;;;;0.90;100.00;99312.97;4484201;32;20143;-76
2022/12/01 03:15:30;;;;;;;17.12;6.72;;;;;;;0.85;100.00;99306.25;4485670;31;20156;-76
2022/12/01 03:18:06;;;;;;;12.70;6.25;;;;;;;0.87;100.00;99307.03;4483738;32;20160;-76
2022/12/01 03:20:37;;;;;;;13.85;6.22;;;;;;;0.82;100.00;99308.97;4480567;31;20118;-76
2022/12/01 03:23:13;;;;;;;12.60;5.85;;;;;;;0.68;100.00;99301.78;4468565;32;20076;-76
2022/12/01 03:25:44;;;;;;;15.18;6.28;;;;;;;0.75;100.00;99296.38;4468847;32;20160;-76
2022/12/01 03:28:12;;;;;;;13.15;6.03;;;;;;;0.85;100.00;99301.09;4468577;32;20093;-76
2022/12/01 03:30:51;;;;;;;12.82;6.25;;;;;;;0.88;100.00;99298.38;4468550;32;20126;-76
2022/12/01 03:33:26;;;;;;;16.05;6.95;;;;;;;0.86;100.00;99282.16;4468825;32;20221;-76
2022/12/01 03:35:58;;;;;;;12.32;5.47;;;;;;;0.85;100.00;99288.19;4468407;32;20569;-76
2022/12/01 03:38:27;;;;;;;14.25;5.70;;;;;;;0.84;100.00;99281.34;4468705;32;20176;-76
2022/12/01 03:41:02;;;;;;;15.45;6.25;;;;;;;0.84;100.00;99280.53;4468487;32;20095;-76
2022/12/01 03:43:32;;;;;;;13.18;5.60;;;;;;;0.80;100.00;99279.81;4468521;32;20098;-76
2022/12/01 03:46:06;;;;;;;18.12;6.75;;;;;;;0.79;100.00;99272.97;4468471;32;20132;-76
2022/12/01 03:48:33;;;;;;;17.00;6.72;;;;;;;0.87;100.00;99273.50;4468598;32;20100;-76
2022/12/01 03:51:15;;;;;;;12.70;4.65;;;;;;;0.93;100.00;99269.81;4469637;32;20170;-76
2022/12/01 03:53:58;;;;;;;14.27;5.37;;;;;;;0.91;100.00;99261.31;4468756;32;20106;-76
2022/12/01 03:56:31;;;;;;;13.77;5.82;;;;;;;0.79;100.00;99252.34;4468717;32;20431;-76
2022/12/01 03:58:59;;;;;;;16.55;6.53;;;;;;;0.80;100.00;99248.88;4468391;32;20195;-76
2022/12/01 04:01:31;;;;;;;17.25;6.30;;;;;;;0.74;100.00;99246.53;4468068;32;20113;-76
2022/12/01 04:04:10;;;;;;;12.30;5.53;;;;;;;0.71;100.00;99238.91;4469797;32;20193;-76
2022/12/01 04:06:39;;;;;;;12.48;5.43;;;;;;;0.64;100.00;99250.41;4469545;32;20106;-76
2022/12/01 04:09:06;;;;;;;17.65;6.65;;;;;;;0.58;100.00;99242.91;4479066;32;20141;-76
2022/12/01 04:14:28;;;;;;;14.40;6.17;;;;;;;0.63;100.00;99241.81;4435784;32;20260;-76
2022/12/01 04:16:55;;;;;;;12.90;5.05;;;;;;;0.81;100.00;99250.53;4435947;32;20116;-76
2022/12/01 04:19:22;;;;;;;15.60;5.57;;;;;;;0.90;100.00;99263.97;4436120;32;20474;-76
2022/12/01 04:21:50;;;;;;;13.88;5.95;;;;;;;0.92;100.00;99275.88;4436144;32;20151;-76
2022/12/01 04:24:17;;;;;;;13.50;5.32;;;;;;;0.93;100.00;99287.06;4435959;32;20525;-76
2022/12/01 04:26:44;;;;;;;10.00;4.30;;;;;;;1.02;100.00;99289.25;4435884;32;20106;-76
2022/12/01 04:29:12;;;;;;;11.82;4.80;;;;;;;1.04;100.00;99296.00;4434841;32;20148;-76
2022/12/01 04:31:39;;;;;;;11.12;5.22;;;;;;;1.00;100.00;99302.22;4435928;32;20153;-76
2022/12/01 04:34:08;;;;;;;14.13;5.12;;;;;;;1.04;100.00;99302.91;4435803;32;20093;-76
2022/12/01 04:36:35;;;;;;;16.17;6.00;;;;;;;0.99;100.00;99294.53;4436153;32;20094;-76
2022/12/01 04:39:02;;;;;;;14.75;5.60;;;;;;;0.96;100.00;99280.00;4435902;32;20141;-76
2022/12/01 04:41:30;;;;;;;11.93;5.43;;;;;;;0.90;100.00;99279.44;4435814;32;20156;-76
2022/12/01 04:43:57;;;;;;;14.20;6.15;;;;;;;0.82;100.00;99282.34;4435792;32;20112;-76
2022/12/01 04:46:24;;;;;;;12.57;5.68;;;;;;;0.82;100.00;99296.06;4435670;32;20686;-76
2022/12/01 04:48:51;;;;;;;15.38;6.10;;;;;;;0.74;100.00;99302.44;4435926;32;20117;-76
2022/12/01 04:51:20;;;;;;;19.45;6.62;;;;;;;0.65;100.00;99301.03;4451950;32;20096;-76
2022/12/01 04:53:48;;;;;;;14.80;6.03;;;;;;;0.64;100.00;99313.09;4469074;32;20130;-76
2022/12/01 04:56:15;;;;;;;14.45;6.47;;;;;;;0.61;100.00;99314.97;4469346;32;20108;-76
2022/12/01 04:58:42;;;;;;;17.40;7.12;;;;;;;0.55;100.00;99310.06;4469136;32;20101;-76
2022/12/01 05:01:11;;;;;;;15.77;6.68;;;;;;;0.49;100.00;99317.13;4468989;32;20096;-76
2022/12/01 05:03:40;;;;;;;15.25;6.43;;;;;;;0.45;100.00;99323.28;4469172;32;20100;-75
2022/12/01 05:06:17;;;;;;;20.55;6.55;;;;;;;0.38;100.00;99314.16;4468939;32;20105;-76
2022/12/01 05:08:44;;;;;;;13.88;5.95;;;;;;;0.35;100.00;99316.84;4476058;32;20122;-76
2022/12/01 05:11:12;;;;;;;17.35;6.47;;;;;;;0.36;100.00;99303.03;4484618;31;20169;-76
2022/12/01 05:13:41;;;;;;;19.12;8.48;;;;;;;0.32;100.00;99304.91;4484529;31;20707;-76
2022/12/01 05:16:13;;;;;;;16.00;6.90;;;;;;;0.26;100.00;99305.16;4484387;31;20439;-76
2022/12/01 05:18:41;;;;;;;16.60;6.80;;;;;;;0.17;100.00;99300.34;4484757;31;20104;-76
2022/12/01 05:21:09;;;;;;;16.80;6.75;;;;;;;0.17;100.00;99297.75;4475576;31;20507;-75
2022/12/01 05:23:37;;;;;;;19.02;7.70;;;;;;;0.20;100.00;99301.94;4468896;32;20134;-75
2022/12/01 05:26:07;;;;;;;20.35;7.90;;;;;;;0.11;100.00;99306.56;4468744;32;20169;-74
2022/12/01 05:28:34;;;;;;;18.90;7.12;;;;;;;0.09;100.00;99303.22;4468739;32;20524;-75
2022/12/01 05:31:02;;;;;;;19.23;7.12;;;;;;;-0.01;100.00;99307.03;4467705;32;20648;-74
2022/12/01 05:33:29;;;;;;;15.80;7.18;;;;;;;-0.11;100.00;99308.25;4468576;32;20108;-74
2022/12/01 05:35:56;;;;;;;19.70;7.62;;;;;;;-0.13;100.00;99315.22;4468558;32;20150;-75
2022/12/01 05:38:23;;;;;;;20.90;7.70;;;;;;;-0.11;100.00;99311.66;4468624;32;20148;-75
2022/12/01 05:40:52;;;;;;;18.27;7.55;;;;;;;-0.06;100.00;99314.06;4469830;32;20093;-74
2022/12/01 05:43:20;;;;;;;23.58;7.87;;;;;;;-0.08;100.00;99308.97;4469278;32;20543;-75
2022/12/01 05:45:56;;;;;;;24.17;8.55;;;;;;;-0.06;100.00;99314.06;4470501;32;20081;-75
2022/12/01 05:48:24;;;;;;;22.37;8.45;;;;;;;-0.15;100.00;99323.00;4470727;32;20488;-74
2022/12/01 05:50:51;;;;;;;20.65;8.30;;;;;;;-0.23;100.00;99328.41;4470578;32;20606;-75
2022/12/01 05:53:19;;;;;;;23.38;6.80;;;;;;;-0.38;100.00;99326.38;4469139;32;20176;-76
2022/12/01 05:55:50;;;;;;;19.30;8.23;;;;;;;-0.46;100.00;99329.22;4470359;32;20127;-75
2022/12/01 05:58:18;;;;;;;19.10;7.80;;;;;;;-0.50;100.00;99329.38;4469487;32;20204;-77
2022/12/01 06:00:45;;;;;;;18.00;8.35;;;;;;;-0.58;100.00;99330.47;4477232;32;20096;-77
2022/12/01 06:03:13;;;;;;;19.70;8.30;;;;;;;-0.63;100.00;99340.09;4485294;32;20095;-77
2022/12/01 06:05:40;;;;;;;22.85;9.30;;;;;;;-0.63;100.00;99337.53;4482793;31;20191;-75
2022/12/01 06:08:07;;;;;;;28.05;8.50;;;;;;;-0.68;100.00;99344.56;4484235;31;20456;-76
2022/12/01 06:10:34;;;;;;;22.77;9.15;;;;;;;-0.73;100.00;99344.72;4483989;31;20129;-73
2022/12/01 06:13:01;;;;;;;21.55;8.65;;;;;;;-0.77;100.00;99344.87;4484728;32;20547;-75
2022/12/01 06:15:28;;;;;;;24.52;9.52;;;;;;;-0.83;100.00;99347.63;4485181;31;20143;-75
2022/12/01 06:17:58;;;;;;;22.83;8.05;;;;;;;-0.84;100.00;99351.94;4485834;31;20112;-75
2022/12/01 06:20:25;;;;;;;21.20;9.48;;;;;;;-0.88;100.00;99339.25;4481977;31;20479;-75
2022/12/01 06:22:52;;;;;;;28.27;8.80;;;;;;;-0.91;100.00;99346.19;4485640;31;20208;-76
2022/12/01 06:25:20;;;;;;;24.67;9.30;;;;;;;-0.88;100.00;99346.97;4484976;31;20120;-75
2022/12/01 06:27:47;;;;;;;26.80;9.27;;;;;;;-0.97;100.00;99351.53;4485250;31;20136;-75
2022/12/01 06:30:14;;;;;;;33.47;8.90;;;;;;;-0.97;100.00;99345.53;4484440;31;20163;-75
2022/12/01 06:32:41;;;;;;;26.02;8.60;;;;;;;-0.99;100.00;99344.75;4484328;32;20129;-75
2022/12/01 06:35:08;;;;;;;23.23;9.48;;;;;;;-1.03;100.00;99343.16;4484749;31;20171;-74
2022/12/01 06:37:35;;;;;;;21.45;9.02;;;;;;;-1.01;100.00;99344.78;4485436;31;20118;-75
2022/12/01 06:40:03;;;;;;;27.58;9.68;;;;;;;-0.95;100.00;99339.44;4486046;31;20093;-74
2022/12/01 06:42:31;;;;;;;29.63;8.85;;;;;;;-0.86;100.00;99342.59;4485852;31;20122;-74
2022/12/01 06:44:58;;;;;;;21.27;8.75;;;;;;;-0.90;100.00;99334.97;4485840;31;20104;-74
2022/12/01 06:47:25;;;;;;;31.80;10.27;;;;;;;-0.87;100.00;99338.37;4485221;31;20163;-75
2022/12/01 06:49:52;;;;;;;24.20;8.52;;;;;;;-0.93;100.00;99336.81;4484814;31;20118;-76
2022/12/01 06:52:20;;;;;;;24.77;9.45;;;;;;;-0.90;100.00;99337.56;4485027;31;20586;-76
2022/12/01 06:54:47;;;;;;;27.50;9.63;;;;;;;-0.83;100.00;99339.91;4483733;31;20101;-74
2022/12/01 06:57:14;;;;;;;20.98;9.00;;;;;;;-0.70;100.00;99343.75;4483923;32;20080;-76
2022/12/01 06:59:42;;;;;;;28.70;9.75;;;;;;;-0.64;100.00;99353.84;4485013;31;20190;-76
2022/12/01 07:02:10;;;;;;;26.23;9.70;;;;;;;-0.56;100.00;99356.16;4478339;31;20104;-75
2022/12/01 07:04:38;;;;;;;23.52;9.30;;;;;;;-0.52;100.00;99356.91;4478187;32;20101;-76
2022/12/01 07:07:05;;;;;;;20.45;9.52;;;;;;;-0.49;100.00;99356.81;4476012;31;20104;-73
2022/12/01 07:09:33;;;;;;;29.70;9.98;;;;;;;-0.41;100.00;99353.06;4479970;31;20138;-75
2022/12/01 07:12:00;;;;;;;37.08;9.93;;;;;;;-0.31;100.00;99356.16;4476406;32;20089;-74
2022/12/01 07:14:27;;;;;;;23.98;10.15;;;;;;;-0.24;100.00;99356.81;4477869;32;20454;-77
2022/12/01 07:16:54;;;;;;;23.83;10.10;;;;;;;-0.13;100.00;99353.84;4482161;32;20220;-75
2022/12/01 07:19:21;;;;;;;22.27;9.77;;;;;;;-0.04;100.00;99364.62;4485071;32;20108;-75
2022/12/01 07:21:49;;;;;;;25.45;10.32;;;;;;;0.07;100.00;99343.63;4482585;32;20544;-78
2022/12/01 07:24:16;;;;;;;27.87;9.93;;;;;;;0.21;100.00;99344.84;4482277;31;20117;-77
2022/12/01 07:26:43;;;;;;;36.25;14.60;;;;;;;0.28;100.00;99333.44;4484875;31;20105;-78
2022/12/01 07:29:10;;;;;;;37.25;15.00;;;;;;;0.33;100.00;99341.81;4479732;31;20104;-77
2022/12/01 07:31:38;;;;;;;43.97;15.18;;;;;;;0.48;100.00;99348.94;4475453;32;20441;-77
2022/12/01 07:34:05;;;;;;;41.37;14.50;;;;;;;0.47;100.00;99344.72;4477110;32;20148;-76
2022/12/01 07:36:32;;;;;;;31.25;12.23;;;;;;;0.55;100.00;99349.56;4484116;32;20160;-76
2022/12/01 07:39:04;;;;;;;22.75;9.98;;;;;;;0.68;100.00;99355.06;4484311;31;20092;-77
2022/12/01 07:41:31;;;;;;;24.00;9.25;;;;;;;0.81;100.00;99353.69;4483662;31;20402;-79
2022/12/01 07:43:58;;;;;;;20.60;8.77;;;;;;;0.80;100.00;99359.78;4484578;32;20119;-78
2022/12/01 07:46:27;;;;;;;22.25;8.75;;;;;;;0.85;100.00;99359.59;4481176;31;20096;-79
2022/12/01 07:48:54;;;;;;;19.98;8.20;;;;;;;0.98;100.00;99363.31;4472489;32;20096;-77
2022/12/01 07:51:23;;;;;;;21.05;8.30;;;;;;;1.14;100.00;99358.41;4480526;31;20087;-77
2022/12/01 07:53:51;;;;;;;18.90;9.15;;;;;;;1.33;100.00;99358.50;4482436;31;20127;-76
2022/12/01 07:56:19;;;;;;;24.60;9.43;;;;;;;1.51;100.00;99368.94;4483877;31;20164;-75
2022/12/01 07:58:46;;;;;;;20.83;10.15;;;;;;;1.73;100.00;99369.69;4469087;31;208679;-75
2022/12/01 08:01:23;;;;;;;27.25;9.95;;;;;;;1.99;100.00;99365.12;4480765;31;20108;-75
2022/12/01 08:03:56;;;;;;;19.00;8.02;;;;;;;2.18;100.00;99359.97;4482112;32;20164;-75
2022/12/01 08:06:24;;;;;;;16.95;8.00;;;;;;;2.41;100.00;99363.25;4479683;31;20171;-74
2022/12/01 08:08:52;;;;;;;18.40;8.20;;;;;;;2.56;100.00;99356.50;4480916;31;20121;-75
2022/12/01 08:11:24;;;;;;;19.92;8.30;;;;;;;2.70;100.00;99364.47;4481181;32;20179;-75
2022/12/01 08:13:52;;;;;;;22.62;8.60;;;;;;;2.83;100.00;99368.16;4485033;31;20162;-74
2022/12/01 08:16:21;;;;;;;16.83;8.13;;;;;;;2.94;100.00;99370.22;4483873;31;20540;-74
2022/12/01 08:18:48;;;;;;;18.98;7.50;;;;;;;3.14;100.00;99369.25;4484461;31;20093;-74
2022/12/01 08:21:18;;;;;;;21.85;8.60;;;;;;;3.16;100.00;99366.59;4477467;31;20151;-74
2022/12/01 08:23:45;;;;;;;18.77;8.45;;;;;;;3.26;100.00;99365.22;4483543;31;20170;-74
2022/12/01 08:26:15;;;;;;;19.55;8.90;;;;;;;3.36;100.00;99357.81;4482258;31;20587;-74
2022/12/01 08:28:42;;;;;;;20.02;8.82;;;;;;;3.48;100.00;99351.19;4483572;31;20163;-74
2022/12/01 08:31:21;;;;;;;18.37;8.00;;;;;;;3.54;100.00;99356.91;4483693;31;20156;-76
2022/12/01 08:33:49;;;;;;;19.42;8.52;;;;;;;3.66;99.26;99362.38;4484575;31;20093;-75
2022/12/01 08:36:17;;;;;;;19.12;7.97;;;;;;;3.67;98.70;99359.72;4484866;32;20108;-74
2022/12/01 08:38:46;;;;;;;16.65;7.12;;;;;;;3.83;98.53;99364.94;4482628;31;20108;-73
2022/12/01 08:41:14;;;;;;;18.33;8.40;;;;;;;3.81;97.93;99365.94;4483707;31;20135;-74
2022/12/01 08:43:43;;;;;;;14.87;7.62;;;;;;;4.00;97.79;99365.81;4483635;31;20148;-72
2022/12/01 08:46:29;;;;;;;16.10;7.82;;;;;;;4.02;96.54;99370.00;4484580;31;20161;-71
2022/12/01 08:48:57;;;;;;;23.00;7.68;;;;;;;4.07;96.53;99368.00;4483544;31;20114;-72
2022/12/01 08:51:25;;;;;;;20.55;7.95;;;;;;;4.08;94.99;99372.25;4483080;31;20123;-72
2022/12/01 08:53:54;;;;;;;15.90;6.60;;;;;;;4.24;96.28;99363.69;4484996;31;20133;-74
2022/12/01 08:56:28;;;;;;;19.20;7.72;;;;;;;4.35;95.60;99371.72;4483085;31;20168;-75
2022/12/01 08:58:56;;;;;;;12.07;6.12;;;;;;;4.52;93.72;99369.97;4481650;31;20151;-74
2022/12/01 09:01:27;;;;;;;14.05;7.43;;;;;;;4.43;91.98;99372.12;4475462;32;20135;-73
2022/12/01 09:04:04;;;;;;;25.50;8.48;;;;;;;4.42;94.72;99375.66;4479394;32;20469;-75
2022/12/01 09:06:43;;;;;;;18.58;7.37;;;;;;;4.38;94.21;99370.72;4484199;31;20485;-74
2022/12/01 09:09:13;;;;;;;16.62;7.25;;;;;;;4.56;94.56;99379.28;4474488;31;20495;-72
2022/12/01 09:11:42;;;;;;;17.92;7.78;;;;;;;4.49;90.34;99380.50;4477322;32;20109;-74
2022/12/01 09:14:11;;;;;;;17.42;7.30;;;;;;;4.76;99.16;99370.38;4480636;31;20112;-75
2022/12/01 09:16:39;;;;;;;16.75;7.93;;;;;;;4.83;94.01;99376.06;4479631;31;20104;-73
2022/12/01 09:19:07;;;;;;;15.00;7.32;;;;;;;4.91;93.01;99371.28;4471697;32;20119;-73
2022/12/01 09:21:36;;;;;;;17.10;8.70;;;;;;;4.85;88.75;99366.44;4480590;32;20119;-74
2022/12/01 09:24:05;;;;;;;15.82;6.97;;;;;;;4.79;91.59;99365.00;4482003;31;20146;-74
2022/12/01 09:26:33;;;;;;;16.45;7.43;;;;;;;4.74;94.30;99360.06;4481372;31;20208;-74
2022/12/01 09:29:05;;;;;;;15.68;6.68;;;;;;;4.70;93.24;99366.34;4479549;32;20163;-73
2022/12/01 09:31:34;;;;;;;19.77;7.22;;;;;;;4.96;94.72;99358.88;4478548;32;20092;-72
2022/12/01 09:34:05;;;;;;;15.32;7.43;;;;;;;4.76;91.43;99352.22;4480897;32;20100;-73
2022/12/01 09:36:34;;;;;;;16.25;7.37;;;;;;;4.96;95.01;99348.47;4471810;32;20093;-72
2022/12/01 09:39:03;;;;;;;14.32;6.35;;;;;;;4.96;91.71;99348.47;4475446;32;20171;-72
2022/12/01 09:41:36;;;;;;;11.77;6.12;;;;;;;4.97;89.26;99348.38;4478095;32;20111;-71
2022/12/01 09:44:19;;;;;;;13.55;7.40;;;;;;;5.02;88.74;99348.13;4469255;32;20211;-71
2022/12/01 09:46:50;;;;;;;17.30;7.05;;;;;;;4.82;88.17;99351.84;4480734;32;20114;-71
2022/12/01 09:49:24;;;;;;;19.95;6.75;;;;;;;4.76;90.29;99345.25;4481075;32;20120;-72
2022/12/01 09:51:52;;;;;;;15.10;7.05;;;;;;;4.74;90.66;99344.50;4481345;32;20111;-73
2022/12/01 09:54:19;;;;;;;13.80;7.50;;;;;;;4.72;88.56;99342.91;4480223;32;20096;-72
2022/12/01 09:56:51;;;;;;;17.15;6.97;;;;;;;4.65;91.15;99345.03;4481119;32;20101;-72
2022/12/01 09:59:23;;;;;;;15.80;6.93;;;;;;;4.75;90.40;99343.59;4478401;32;20708;-72
2022/12/01 10:02:01;;;;;;;16.20;7.45;;;;;;;4.77;90.19;99339.13;4479498;31;20107;-72
2022/12/01 10:04:43;;;;;;;14.05;7.15;;;;;;;4.77;91.24;99333.13;4491086;31;20134;-72
2022/12/01 10:07:22;;;;;;;17.60;7.22;;;;;;;4.77;90.35;99339.13;4472046;31;20127;-72
2022/12/01 10:09:58;;;;;;;12.80;6.57;;;;;;;4.71;91.26;99336.88;4477437;32;20130;-72
2022/12/01 10:12:30;;;;;;;15.65;7.85;;;;;;;4.61;88.44;99333.97;4474884;31;20472;-73
2022/12/01 10:15:27;;;;;;;12.95;7.03;;;;;;;4.50;89.50;99330.31;4477184;32;20120;-72
2022/12/01 10:18:06;;;;;;;19.17;7.20;;;;;;;4.73;89.32;99334.22;4477886;31;20642;-73
2022/12/01 10:20:58;;;;;;;14.20;6.57;;;;;;;4.82;88.53;99322.47;4480416;32;20096;-72
2022/12/01 10:23:40;;;;;;;14.05;6.35;;;;;;;5.07;90.26;99322.75;4478740;32;20108;-72
2022/12/01 10:26:15;;;;;;;21.60;6.72;;;;;;;5.02;85.71;99322.16;4478777;32;20591;-72
2022/12/01 10:28:52;;;;;;;14.18;7.12;;;;;;;5.26;86.92;99324.28;4483561;32;20122;-72
2022/12/01 10:31:34;;;;;;;13.62;7.25;;;;;;;5.39;86.98;99317.44;4480992;31;20097;-71
2022/12/01 10:34:15;;;;;;;15.55;7.32;;;;;;;5.26;84.76;99321.69;4468759;32;20114;-71
2022/12/01 10:36:43;;;;;;;15.50;8.07;;;;;;;5.30;84.43;99317.97;4476851;32;20096;-71
2022/12/01 10:39:17;;;;;;;15.50;7.78;;;;;;;5.32;85.92;99311.75;4485494;31;20140;-72
2022/12/01 10:41:45;;;;;;;18.08;8.25;;;;;;;5.62;85.90;99310.03;4483681;32;20508;-71
2022/12/01 10:44:12;;;;;;;13.57;6.95;;;;;;;5.76;84.94;99310.03;4471755;32;20096;-71
2022/12/01 10:46:51;;;;;;;16.37;7.03;;;;;;;5.61;82.04;99308.34;4484697;32;20179;-71
2022/12/01 10:49:19;;;;;;;17.30;7.12;;;;;;;5.64;84.69;99305.56;4484704;31;20160;-70
2022/12/01 10:51:53;;;;;;;18.35;7.40;;;;;;;5.51;84.02;99303.72;4483516;31;20100;-71
2022/12/01 10:54:41;;;;;;;12.37;7.05;;;;;;;5.35;85.63;99300.34;4461705;32;20596;-71
2022/12/01 10:57:14;;;;;;;13.27;6.80;;;;;;;5.29;85.90;99303.31;4482473;32;20084;-71
2022/12/01 10:59:47;;;;;;;16.55;7.80;;;;;;;5.37;85.32;99310.66;4481832;31;20445;-70
2022/12/01 11:02:24;;;;;;;27.50;8.80;;;;;;;5.19;85.47;99304.78;4478528;32;20112;-72
2022/12/01 11:04:55;;;;;;;17.27;7.72;;;;;;;5.05;86.14;99306.41;4478965;32;20134;-71
2022/12/01 11:07:24;;;;;;;15.25;7.37;;;;;;;4.98;87.03;99310.28;4469718;31;20878;-71
2022/12/01 11:10:21;;;;;;;15.70;7.87;;;;;;;4.98;88.19;99295.53;4471345;32;20127;-71
2022/12/01 11:12:57;;;;;;;16.62;7.80;;;;;;;5.01;88.46;99285.91;4470969;32;20211;-71
2022/12/01 11:15:30;;;;;;;17.20;8.18;;;;;;;4.85;89.21;99280.78;4471761;32;20119;-69
2022/12/01 11:18:08;;;;;;;14.77;7.70;;;;;;;4.79;90.08;99276.75;4482441;32;20115;-70
2022/12/01 11:20:38;;;;;;;20.80;8.48;;;;;;;4.90;89.36;99278.72;4465988;32;20172;-71
2022/12/01 11:23:17;;;;;;;14.00;7.60;;;;;;;4.83;88.04;99280.00;4473386;32;20155;-71
2022/12/01 11:26:03;;;;;;;18.08;8.68;;;;;;;4.81;88.05;99277.50;4480905;32;20167;-71
2022/12/01 11:28:31;;;;;;;24.20;8.25;;;;;;;4.87;91.94;99269.34;4481137;32;20563;-73
2022/12/01 11:31:06;;;;;;;18.15;8.85;;;;;;;5.02;89.61;99270.22;4481754;31;20155;-70
2022/12/01 11:33:43;;;;;;;20.20;8.02;;;;;;;5.27;89.45;99267.03;4480630;32;20105;-73
2022/12/01 11:36:19;;;;;;;22.98;8.80;;;;;;;5.56;94.65;99269.66;4480349;32;20104;-71
2022/12/01 11:38:46;;;;;;;21.83;8.63;;;;;;;5.62;86.74;99268.44;4475655;32;20084;-71
2022/12/01 11:41:26;;;;;;;14.00;8.27;;;;;;;5.58;84.84;99266.97;4483932;31;20093;-73
2022/12/01 11:43:55;;;;;;;21.37;8.73;;;;;;;5.59;86.29;99261.66;4481758;31;20132;-73
2022/12/01 11:46:33;;;;;;;17.27;8.73;;;;;;;5.62;86.75;99256.28;4481438;31;20521;-72
2022/12/01 11:49:00;;;;;;;17.45;8.05;;;;;;;5.67;84.62;99263.78;4461633;32;20108;-73